createdAt,value
2018-10-17T00:01:25.751Z,98.78
2018-10-17T00:03:54.843Z,97.65
2018-10-17T00:06:23.967Z,97.79
2018-10-17T00:08:53.059Z,97.99
2018-10-17T00:11:22.290Z,99.07
2018-10-17T00:13:51.359Z,99.00
2018-10-17T00:16:20.551Z,99.22
2018-10-17T00:18:49.738Z,99.51
2018-10-17T00:21:18.903Z,98.71
2018-10-17T00:23:48.076Z,98.14
2018-10-17T00:26:17.311Z,99.52
2018-10-17T00:28:47.023Z,99.79
2018-10-17T00:31:16.177Z,100.00
2018-10-17T00:33:45.326Z,100.00
2018-10-17T00:36:14.461Z,100.00
2018-10-17T00:38:43.563Z,99.74
2018-10-17T00:41:12.879Z,99.09
2018-10-17T00:43:41.905Z,98.27
2018-10-17T00:46:11.666Z,98.40
2018-10-17T00:48:40.790Z,98.79
2018-10-17T00:51:09.919Z,100.00
2018-10-17T00:53:39.163Z,100.00
2018-10-17T00:56:08.781Z,99.68
2018-10-17T00:58:37.875Z,100.00
2018-10-17T01:01:07.054Z,100.00
2018-10-17T01:03:36.089Z,99.66
2018-10-17T01:06:05.203Z,98.49
2018-10-17T01:08:34.403Z,98.66
2018-10-17T01:11:03.606Z,98.67
2018-10-17T01:13:32.789Z,98.86
2018-10-17T01:16:01.843Z,98.66
2018-10-17T01:18:30.977Z,99.68
2018-10-17T01:21:00.081Z,100.00
2018-10-17T01:23:29.165Z,100.00
2018-10-17T01:25:58.274Z,100.00
2018-10-17T01:28:27.508Z,99.83
2018-10-17T01:30:56.805Z,99.12
2018-10-17T01:33:25.870Z,99.02
2018-10-17T01:35:55.065Z,99.41
2018-10-17T01:38:24.256Z,100.00
2018-10-17T01:40:53.371Z,100.00
2018-10-17T01:43:22.462Z,100.00
2018-10-17T01:45:51.760Z,99.45
2018-10-17T01:48:20.949Z,99.90
2018-10-17T01:50:50.088Z,100.00
2018-10-17T01:53:19.192Z,100.00
2018-10-17T01:55:48.324Z,100.00
2018-10-17T01:58:17.392Z,100.00
2018-10-17T02:00:46.659Z,100.00
2018-10-17T02:03:15.824Z,99.79
2018-10-17T02:05:45.015Z,100.00
2018-10-17T02:08:14.175Z,100.00
2018-10-17T02:10:43.302Z,99.78
2018-10-17T02:13:12.571Z,100.00
2018-10-17T02:15:41.653Z,100.00
2018-10-17T02:18:10.815Z,100.00
2018-10-17T02:20:39.913Z,100.00
2018-10-17T02:23:09.067Z,100.00
2018-10-17T02:25:38.204Z,100.00
2018-10-17T02:28:08.230Z,100.00
2018-10-17T02:30:37.309Z,100.00
2018-10-17T02:33:06.804Z,100.00
2018-10-17T02:35:36.009Z,100.00
2018-10-17T02:38:05.172Z,100.00
2018-10-17T02:40:34.350Z,100.00
2018-10-17T02:43:03.582Z,100.00
2018-10-17T02:45:32.750Z,100.00
2018-10-17T02:48:01.921Z,100.00
2018-10-17T02:50:31.013Z,100.00
2018-10-17T02:53:00.174Z,99.74
2018-10-17T02:55:29.312Z,100.00
2018-10-17T02:57:58.468Z,100.00
2018-10-17T03:00:27.668Z,100.00
2018-10-17T03:02:56.870Z,100.00
2018-10-17T03:05:25.969Z,100.00
2018-10-17T03:07:55.073Z,100.00
2018-10-17T03:10:24.240Z,100.00
2018-10-17T03:12:53.353Z,100.00
2018-10-17T03:15:22.458Z,100.00
2018-10-17T03:17:51.581Z,100.00
2018-10-17T03:20:20.808Z,100.00
2018-10-17T03:22:49.901Z,100.00
2018-10-17T03:25:19.239Z,100.00
2018-10-17T03:27:48.331Z,100.00
2018-10-17T03:30:17.358Z,100.00
2018-10-17T03:32:46.494Z,100.00
2018-10-17T03:35:15.709Z,100.00
2018-10-17T03:37:44.837Z,100.00
2018-10-17T03:40:13.935Z,100.00
2018-10-17T03:42:43.024Z,100.00
2018-10-17T03:45:12.102Z,100.00
2018-10-17T03:47:41.222Z,100.00
2018-10-17T03:50:10.340Z,100.00
2018-10-17T03:52:39.518Z,100.00
2018-10-17T03:55:08.731Z,100.00
2018-10-17T03:57:37.741Z,100.00
2018-10-17T04:00:07.641Z,100.00
2018-10-17T04:02:36.752Z,100.00
2018-10-17T04:05:06.506Z,100.00
2018-10-17T04:07:35.586Z,100.00
2018-10-17T04:10:04.977Z,100.00
2018-10-17T04:12:34.123Z,100.00
2018-10-17T04:15:03.891Z,100.00
2018-10-17T04:17:33.009Z,100.00
2018-10-17T04:20:02.133Z,100.00
2018-10-17T04:22:31.225Z,100.00
2018-10-17T04:25:00.350Z,100.00
2018-10-17T04:27:29.428Z,100.00
2018-10-17T04:29:58.619Z,100.00
2018-10-17T04:32:27.756Z,100.00
2018-10-17T04:34:56.924Z,100.00
2018-10-17T04:37:25.996Z,100.00
2018-10-17T04:39:55.116Z,100.00
2018-10-17T04:42:24.204Z,100.00
2018-10-17T04:44:53.292Z,100.00
2018-10-17T04:47:22.453Z,100.00
2018-10-17T04:49:52.497Z,100.00
2018-10-17T04:52:21.627Z,100.00
2018-10-17T04:54:50.751Z,100.00
2018-10-17T04:57:19.807Z,100.00
2018-10-17T04:59:48.891Z,100.00
2018-10-17T05:02:18.104Z,100.00
2018-10-17T05:04:47.190Z,100.00
2018-10-17T05:07:16.390Z,100.00
2018-10-17T05:09:45.548Z,100.00
2018-10-17T05:12:14.681Z,100.00
2018-10-17T05:14:43.959Z,100.00
2018-10-17T05:17:13.136Z,100.00
2018-10-17T05:19:42.170Z,100.00
2018-10-17T05:22:11.359Z,100.00
2018-10-17T05:24:40.461Z,100.00
2018-10-17T05:27:09.705Z,100.00
2018-10-17T05:29:38.913Z,100.00
2018-10-17T05:32:08.164Z,100.00
2018-10-17T05:34:37.249Z,100.00
2018-10-17T05:37:06.497Z,100.00
2018-10-17T05:39:35.566Z,100.00
2018-10-17T05:42:04.789Z,100.00
2018-10-17T05:44:33.995Z,100.00
2018-10-17T05:47:03.291Z,100.00
2018-10-17T05:49:32.373Z,100.00
2018-10-17T05:52:01.436Z,100.00
2018-10-17T05:54:30.657Z,100.00
2018-10-17T05:56:59.913Z,100.00
2018-10-17T05:59:29.169Z,100.00
2018-10-17T06:01:59.599Z,100.00
2018-10-17T06:04:28.769Z,100.00
2018-10-17T06:06:58.032Z,100.00
2018-10-17T06:09:27.153Z,100.00
2018-10-17T06:11:56.256Z,100.00
2018-10-17T06:14:25.320Z,100.00
2018-10-17T06:16:54.535Z,100.00
2018-10-17T06:19:23.820Z,100.00
2018-10-17T06:21:53.014Z,100.00
2018-10-17T06:24:22.137Z,100.00
2018-10-17T06:26:51.312Z,100.00
2018-10-17T06:29:20.404Z,100.00
2018-10-17T06:31:49.521Z,100.00
2018-10-17T06:34:18.664Z,100.00
2018-10-17T06:36:47.832Z,100.00
2018-10-17T06:39:17.007Z,100.00
2018-10-17T06:41:46.184Z,100.00
2018-10-17T06:44:15.259Z,100.00
2018-10-17T06:46:44.403Z,100.00
2018-10-17T06:49:13.513Z,100.00
2018-10-17T06:51:42.620Z,100.00
2018-10-17T06:54:11.748Z,100.00
2018-10-17T06:56:40.961Z,100.00
2018-10-17T06:59:10.061Z,100.00
2018-10-17T07:01:39.188Z,100.00
2018-10-17T07:04:08.311Z,100.00
2018-10-17T07:06:37.415Z,100.00
2018-10-17T07:09:08.596Z,99.20
2018-10-17T07:11:37.993Z,98.22
2018-10-17T07:14:07.215Z,97.75
2018-10-17T07:16:36.309Z,97.35
2018-10-17T07:19:05.461Z,95.42
2018-10-17T07:21:34.599Z,95.65
2018-10-17T07:24:03.811Z,94.37
2018-10-17T07:26:33.391Z,92.93
2018-10-17T07:29:02.540Z,92.69
2018-10-17T07:31:31.671Z,91.32
2018-10-17T07:34:00.787Z,91.32
2018-10-17T07:36:29.985Z,90.20
2018-10-17T07:38:59.151Z,89.94
2018-10-17T07:41:28.295Z,88.96
2018-10-17T07:43:57.470Z,86.44
2018-10-17T07:46:27.469Z,84.08
2018-10-17T07:48:56.605Z,85.43
2018-10-17T07:51:25.761Z,84.24
2018-10-17T07:53:54.945Z,83.25
2018-10-17T07:56:24.073Z,81.80
2018-10-17T07:58:53.157Z,81.17
2018-10-17T08:01:22.265Z,80.87
2018-10-17T08:03:51.445Z,79.80
2018-10-17T08:06:20.719Z,79.29
2018-10-17T08:08:49.797Z,78.89
2018-10-17T08:11:18.961Z,78.46
2018-10-17T08:13:48.073Z,76.58
2018-10-17T08:16:17.324Z,77.25
2018-10-17T08:18:46.445Z,76.94
2018-10-17T08:21:15.763Z,75.86
2018-10-17T08:23:44.842Z,75.80
2018-10-17T08:26:14.013Z,74.65
2018-10-17T08:28:43.464Z,75.17
2018-10-17T08:31:12.564Z,75.05
2018-10-17T08:33:41.846Z,73.78
2018-10-17T08:36:11.088Z,73.88
2018-10-17T08:38:40.240Z,73.67
2018-10-17T08:41:09.495Z,72.81
2018-10-17T08:43:38.483Z,72.80
2018-10-17T08:46:07.629Z,71.77
2018-10-17T08:48:36.728Z,71.43
2018-10-17T08:51:06.071Z,70.21
2018-10-17T08:53:35.656Z,70.78
2018-10-17T08:56:04.816Z,71.83
2018-10-17T08:58:34.210Z,71.76
2018-10-17T09:01:03.414Z,72.06
2018-10-17T09:03:33.174Z,70.62
2018-10-17T09:06:04.142Z,70.32
2018-10-17T09:08:33.474Z,71.52
2018-10-17T09:11:02.704Z,69.40
2018-10-17T09:13:31.952Z,69.28
2018-10-17T09:16:01.304Z,69.17
2018-10-17T09:18:30.354Z,67.25
2018-10-17T09:20:59.877Z,68.36
2018-10-17T09:23:29.062Z,69.00
2018-10-17T09:25:58.139Z,69.88
2018-10-17T09:28:27.225Z,68.70
2018-10-17T09:30:56.676Z,65.08
2018-10-17T09:33:25.766Z,66.22
2018-10-17T09:35:54.952Z,64.87
2018-10-17T09:38:24.049Z,64.41
2018-10-17T09:40:53.275Z,64.00
2018-10-17T09:43:22.613Z,64.87
2018-10-17T09:45:51.694Z,65.10
2018-10-17T09:48:20.933Z,63.56
2018-10-17T09:50:50.077Z,61.83
2018-10-17T09:53:19.304Z,62.47
2018-10-17T09:55:48.334Z,61.50
2018-10-17T09:58:17.539Z,59.99
2018-10-17T10:00:52.483Z,61.54
2018-10-17T10:03:21.581Z,63.14
2018-10-17T10:05:50.736Z,63.50
2018-10-17T10:08:19.989Z,64.27
2018-10-17T10:10:49.250Z,62.49
2018-10-17T10:13:18.401Z,63.79
2018-10-17T10:15:47.624Z,64.08
2018-10-17T10:18:16.725Z,62.59
2018-10-17T10:20:45.841Z,61.61
2018-10-17T10:23:15.212Z,63.57
2018-10-17T10:25:44.160Z,63.25
2018-10-17T10:28:13.349Z,62.70
2018-10-17T10:30:42.429Z,62.53
2018-10-17T10:33:11.608Z,62.75
2018-10-17T10:35:40.689Z,61.13
2018-10-17T10:38:09.904Z,62.80
2018-10-17T10:40:39.059Z,60.82
2018-10-17T10:43:08.089Z,59.18
2018-10-17T10:45:37.268Z,61.08
2018-10-17T10:48:06.332Z,61.09
2018-10-17T10:50:35.472Z,58.75
2018-10-17T10:53:04.644Z,58.13
2018-10-17T10:55:33.676Z,57.48
2018-10-17T10:58:02.904Z,57.15
2018-10-17T11:00:32.668Z,56.33
2018-10-17T11:03:01.853Z,55.78
2018-10-17T11:05:31.091Z,55.41
2018-10-17T11:08:00.120Z,54.96
2018-10-17T11:10:29.457Z,56.20
2018-10-17T11:12:58.559Z,53.54
2018-10-17T11:15:27.672Z,53.75
2018-10-17T11:17:56.760Z,53.65
2018-10-17T11:20:25.859Z,51.12
2018-10-17T11:22:55.031Z,50.76
2018-10-17T11:25:24.073Z,49.64
2018-10-17T11:27:53.261Z,48.46
2018-10-17T11:30:22.344Z,46.79
2018-10-17T11:32:51.431Z,44.53
2018-10-17T11:35:20.625Z,43.60
2018-10-17T11:37:49.829Z,40.74
2018-10-17T11:40:18.896Z,38.60
2018-10-17T11:42:48.011Z,38.96
2018-10-17T11:45:17.158Z,36.46
2018-10-17T11:47:46.224Z,34.22
2018-10-17T11:50:15.316Z,32.94
2018-10-17T11:52:44.401Z,31.87
2018-10-17T11:55:13.496Z,31.35
2018-10-17T11:57:42.556Z,30.21
2018-10-17T12:00:13.077Z,30.89
2018-10-17T12:02:42.210Z,31.41
2018-10-17T12:05:13.328Z,30.58
2018-10-17T12:07:42.453Z,30.57
2018-10-17T12:10:11.534Z,29.26
2018-10-17T12:12:40.629Z,28.50
2018-10-17T12:15:12.315Z,31.33
2018-10-17T12:17:41.638Z,28.92
2018-10-17T12:20:12.690Z,28.17
2018-10-17T12:22:42.657Z,26.25
2018-10-17T12:25:12.207Z,25.37
2018-10-17T12:27:41.374Z,25.49
2018-10-17T12:30:12.621Z,25.77
2018-10-17T12:32:41.745Z,25.62
2018-10-17T12:35:11.191Z,24.84
2018-10-17T12:37:40.305Z,24.65
2018-10-17T12:40:10.464Z,23.66
2018-10-17T12:42:39.632Z,24.10
2018-10-17T12:45:08.946Z,23.71
2018-10-17T12:47:38.063Z,23.99
2018-10-17T12:50:08.123Z,23.36
2018-10-17T12:52:37.279Z,23.69
2018-10-17T12:55:07.124Z,24.38
2018-10-17T12:57:36.223Z,24.09
2018-10-17T13:00:06.189Z,23.38
2018-10-17T13:02:35.260Z,22.77
2018-10-17T13:05:04.783Z,23.22
2018-10-17T13:07:33.816Z,23.52
2018-10-17T13:10:03.072Z,23.24
2018-10-17T13:12:32.240Z,22.63
2018-10-17T13:15:01.379Z,22.64
2018-10-17T13:17:30.540Z,22.74
2018-10-17T13:19:59.635Z,21.95
2018-10-17T13:22:28.738Z,22.59
2018-10-17T13:24:57.849Z,23.42
2018-10-17T13:27:27.069Z,21.46
2018-10-17T13:29:56.224Z,21.31
2018-10-17T13:32:25.396Z,21.55
2018-10-17T13:34:54.507Z,21.46
2018-10-17T13:37:23.691Z,22.23
2018-10-17T13:39:52.808Z,20.06
2018-10-17T13:42:21.984Z,21.28
2018-10-17T13:44:51.180Z,21.25
2018-10-17T13:47:20.317Z,21.66
2018-10-17T13:49:49.400Z,21.03
2018-10-17T13:52:19.237Z,22.57
2018-10-17T13:54:49.025Z,19.65
2018-10-17T13:57:18.018Z,20.83
2018-10-17T13:59:47.241Z,21.88
2018-10-17T14:02:16.397Z,20.88
2018-10-17T14:04:45.486Z,22.39
2018-10-17T14:07:14.813Z,21.39
2018-10-17T14:09:43.789Z,20.69
2018-10-17T14:12:12.979Z,22.53
2018-10-17T14:14:41.977Z,21.79
2018-10-17T14:17:11.076Z,20.91
2018-10-17T14:19:40.166Z,21.61
2018-10-17T14:22:10.025Z,22.04
2018-10-17T14:24:39.307Z,21.56
2018-10-17T14:27:08.755Z,21.55
2018-10-17T14:29:38.075Z,23.45
2018-10-17T14:32:07.225Z,23.03
2018-10-17T14:34:36.309Z,21.72
2018-10-17T14:37:05.881Z,22.08
2018-10-17T14:39:35.113Z,22.19
2018-10-17T14:42:04.315Z,21.77
2018-10-17T14:44:33.395Z,23.73
2018-10-17T14:47:02.539Z,23.02
2018-10-17T14:49:31.668Z,24.40
2018-10-17T14:52:01.016Z,27.56
2018-10-17T14:54:30.572Z,27.48
2018-10-17T14:56:59.635Z,29.99
2018-10-17T14:59:28.756Z,30.09
2018-10-17T15:01:57.854Z,32.97
2018-10-17T15:04:26.924Z,34.40
2018-10-17T15:06:56.048Z,35.31
2018-10-17T15:09:25.436Z,37.12
2018-10-17T15:11:54.717Z,38.05
2018-10-17T15:14:23.654Z,39.14
2018-10-17T15:16:52.746Z,40.05
2018-10-17T15:19:21.836Z,40.67
2018-10-17T15:21:50.933Z,42.37
2018-10-17T15:24:20.271Z,41.95
2018-10-17T15:26:49.148Z,42.36
2018-10-17T15:29:18.294Z,42.23
2018-10-17T15:31:47.530Z,42.72
2018-10-17T15:34:16.576Z,43.44
2018-10-17T15:36:45.721Z,43.69
2018-10-17T15:39:14.817Z,44.63
2018-10-17T15:41:44.014Z,44.56
2018-10-17T15:44:13.273Z,44.90
2018-10-17T15:46:42.379Z,46.20
2018-10-17T15:49:11.476Z,46.07
2018-10-17T15:51:40.567Z,46.33
2018-10-17T15:54:09.847Z,47.01
2018-10-17T15:56:38.850Z,47.38
2018-10-17T15:59:08.111Z,48.37
2018-10-17T16:01:37.249Z,49.10
2018-10-17T16:04:06.406Z,49.50
2018-10-17T16:06:35.532Z,50.23
2018-10-17T16:09:07.596Z,51.38
2018-10-17T16:11:36.929Z,52.91
2018-10-17T16:14:06.203Z,52.81
2018-10-17T16:16:35.364Z,54.44
2018-10-17T16:19:04.512Z,55.03
2018-10-17T16:21:33.639Z,55.21
2018-10-17T16:24:02.805Z,56.07
2018-10-17T16:26:31.948Z,56.42
2018-10-17T16:29:01.028Z,57.32
2018-10-17T16:31:30.200Z,57.38
2018-10-17T16:33:59.307Z,58.39
2018-10-17T16:36:29.110Z,58.62
2018-10-17T16:38:58.440Z,59.19
2018-10-17T16:41:27.608Z,59.19
2018-10-17T16:43:56.643Z,60.20
2018-10-17T16:46:25.761Z,60.87
2018-10-17T16:48:54.861Z,60.76
2018-10-17T16:51:24.001Z,61.66
2018-10-17T16:53:53.146Z,61.62
2018-10-17T16:56:22.234Z,61.91
2018-10-17T16:58:51.321Z,61.75
2018-10-17T17:01:20.417Z,62.20
2018-10-17T17:03:49.517Z,63.01
2018-10-17T17:06:18.697Z,64.20
2018-10-17T17:08:47.828Z,64.08
2018-10-17T17:11:17.017Z,63.96
2018-10-17T17:13:46.119Z,64.75
2018-10-17T17:16:15.295Z,64.88
2018-10-17T17:18:44.369Z,65.29
2018-10-17T17:21:13.526Z,66.51
2018-10-17T17:23:42.668Z,66.06
2018-10-17T17:26:11.836Z,67.51
2018-10-17T17:28:41.048Z,68.03
2018-10-17T17:31:10.152Z,68.71
2018-10-17T17:33:39.285Z,69.88
2018-10-17T17:36:08.400Z,69.98
2018-10-17T17:38:37.495Z,70.23
2018-10-17T17:41:06.818Z,69.70
2018-10-17T17:43:35.995Z,69.62
2018-10-17T17:46:05.275Z,70.76
2018-10-17T17:48:34.455Z,70.95
2018-10-17T17:51:03.610Z,70.46
2018-10-17T17:53:32.771Z,71.88
2018-10-17T17:56:01.872Z,71.21
2018-10-17T17:58:30.988Z,71.49
2018-10-17T18:01:00.071Z,74.45
2018-10-17T18:03:29.258Z,74.37
2018-10-17T18:05:58.494Z,74.46
2018-10-17T18:08:28.309Z,74.04
2018-10-17T18:11:02.257Z,75.44
2018-10-17T18:13:31.357Z,74.90
2018-10-17T18:16:01.134Z,73.97
2018-10-17T18:18:30.271Z,75.27
2018-10-17T18:20:59.649Z,75.16
2018-10-17T18:23:28.750Z,77.11
2018-10-17T18:25:57.859Z,76.63
2018-10-17T18:28:27.594Z,77.77
2018-10-17T18:30:57.985Z,78.06
2018-10-17T18:33:27.818Z,79.83
2018-10-17T18:35:57.068Z,82.09
2018-10-17T18:38:27.138Z,81.39
2018-10-17T18:40:56.543Z,81.62
2018-10-17T18:43:26.050Z,82.45
2018-10-17T18:45:55.344Z,82.99
2018-10-17T18:48:25.166Z,82.90
2018-10-17T18:50:54.461Z,83.76
2018-10-17T18:53:23.734Z,84.30
2018-10-17T18:55:53.424Z,84.24
2018-10-17T18:58:22.510Z,84.36
2018-10-17T19:00:51.724Z,84.85
2018-10-17T19:03:20.894Z,86.27
2018-10-17T19:05:50.075Z,86.32
2018-10-17T19:08:19.475Z,86.44
2018-10-17T19:10:49.232Z,86.70
2018-10-17T19:13:19.059Z,86.42
2018-10-17T19:15:52.573Z,87.31
2018-10-17T19:18:22.341Z,86.51
2018-10-17T19:20:51.595Z,87.44
2018-10-17T19:23:20.958Z,88.49
2018-10-17T19:25:50.126Z,89.53
2018-10-17T19:28:19.295Z,89.38
2018-10-17T19:30:48.521Z,88.61
2018-10-17T19:33:17.819Z,89.41
2018-10-17T19:35:46.966Z,90.82
2018-10-17T19:38:16.303Z,90.89
2018-10-17T19:40:45.543Z,89.59
2018-10-17T19:43:14.673Z,90.36
2018-10-17T19:45:44.025Z,90.56
2018-10-17T19:48:13.169Z,92.81
2018-10-17T19:50:42.269Z,91.55
2018-10-17T19:53:11.405Z,90.46
2018-10-17T19:55:40.586Z,92.07
2018-10-17T19:58:09.789Z,91.27
2018-10-17T20:00:39.901Z,90.91
2018-10-17T20:03:09.117Z,92.51
2018-10-17T20:05:38.966Z,92.75
2018-10-17T20:08:08.192Z,93.82
2018-10-17T20:10:37.302Z,94.28
2018-10-17T20:13:06.500Z,94.76
2018-10-17T20:15:35.644Z,94.09
2018-10-17T20:18:04.857Z,93.16
2018-10-17T20:20:33.965Z,92.45
2018-10-17T20:23:03.082Z,92.01
2018-10-17T20:25:32.188Z,93.07
2018-10-17T20:28:01.496Z,94.27
2018-10-17T20:30:30.616Z,95.43
2018-10-17T20:32:59.808Z,95.60
2018-10-17T20:35:28.864Z,96.33
2018-10-17T20:37:58.143Z,96.00
2018-10-17T20:40:27.254Z,95.28
2018-10-17T20:42:56.332Z,96.46
2018-10-17T20:45:25.596Z,97.13
2018-10-17T20:47:54.713Z,96.55
2018-10-17T20:50:23.955Z,96.63
2018-10-17T20:52:53.212Z,96.52
2018-10-17T20:55:22.344Z,96.71
2018-10-17T20:57:51.478Z,96.30
2018-10-17T21:00:20.953Z,95.78
2018-10-17T21:02:50.062Z,95.57
2018-10-17T21:05:19.190Z,95.38
2018-10-17T21:07:48.376Z,95.92
2018-10-17T21:10:17.504Z,96.43
2018-10-17T21:12:46.732Z,96.36
2018-10-17T21:15:15.916Z,97.66
2018-10-17T21:17:45.042Z,96.76
2018-10-17T21:20:14.342Z,97.29
2018-10-17T21:22:43.575Z,96.37
2018-10-17T21:25:12.679Z,96.45
2018-10-17T21:27:41.936Z,97.82
2018-10-17T21:30:11.703Z,97.26
2018-10-17T21:32:40.874Z,98.26
2018-10-17T21:35:10.053Z,98.03
2018-10-17T21:37:39.286Z,97.98
2018-10-17T21:40:08.393Z,99.27
2018-10-17T21:42:37.703Z,98.69
2018-10-17T21:45:07.380Z,98.51
2018-10-17T21:47:36.690Z,98.16
2018-10-17T21:50:06.227Z,98.92
2018-10-17T21:52:35.319Z,98.52
2018-10-17T21:55:05.205Z,98.56
2018-10-17T21:57:34.290Z,99.94
2018-10-17T22:00:03.634Z,98.59
2018-10-17T22:02:32.705Z,99.89
2018-10-17T22:05:01.839Z,99.86
2018-10-17T22:07:30.972Z,99.85
2018-10-17T22:10:00.075Z,99.75
2018-10-17T22:12:29.241Z,99.09
2018-10-17T22:14:58.426Z,100.00
2018-10-17T22:17:29.181Z,100.00
2018-10-17T22:19:58.662Z,100.00
2018-10-17T22:22:28.060Z,100.00
2018-10-17T22:24:57.333Z,100.00
2018-10-17T22:27:26.494Z,100.00
2018-10-17T22:29:55.751Z,100.00
2018-10-17T22:32:24.797Z,100.00
2018-10-17T22:34:53.897Z,100.00
2018-10-17T22:37:23.021Z,100.00
2018-10-17T22:39:52.167Z,100.00
2018-10-17T22:42:21.284Z,100.00
2018-10-17T22:44:57.059Z,100.00
2018-10-17T22:47:26.158Z,100.00
2018-10-17T22:49:55.336Z,100.00
2018-10-17T22:52:24.477Z,100.00
2018-10-17T22:54:53.560Z,100.00
2018-10-17T22:57:22.693Z,100.00
2018-10-17T22:59:52.025Z,100.00
2018-10-17T23:02:21.197Z,100.00
2018-10-17T23:04:50.292Z,100.00
2018-10-17T23:07:19.456Z,100.00
2018-10-17T23:09:48.736Z,100.00
2018-10-17T23:12:17.880Z,100.00
2018-10-17T23:14:47.021Z,100.00
2018-10-17T23:17:16.201Z,100.00
2018-10-17T23:19:45.348Z,100.00
2018-10-17T23:22:14.557Z,100.00
2018-10-17T23:24:43.620Z,100.00
2018-10-17T23:27:12.848Z,100.00
2018-10-17T23:29:42.892Z,100.00
2018-10-17T23:32:12.159Z,100.00
2018-10-17T23:34:41.273Z,100.00
2018-10-17T23:37:10.504Z,100.00
2018-10-17T23:39:39.663Z,100.00
2018-10-17T23:42:08.888Z,100.00
2018-10-17T23:44:37.932Z,100.00
2018-10-17T23:47:07.076Z,100.00
2018-10-17T23:49:36.206Z,100.00
2018-10-17T23:52:05.736Z,100.00
2018-10-17T23:54:34.944Z,100.00
2018-10-17T23:57:04.167Z,100.00
2018-10-17T23:59:33.380Z,100.00
